createdAt,value
2018-05-25T00:00:08.235Z,5.6
2018-05-25T00:00:20.753Z,5.6
2018-05-25T00:00:33.171Z,5.6
2018-05-25T00:00:45.591Z,5.6
2018-05-25T00:00:58.004Z,5.6
2018-05-25T00:01:10.435Z,5.6
2018-05-25T00:01:22.857Z,5.5
2018-05-25T00:01:35.262Z,5.5
2018-05-25T00:01:47.804Z,5.5
2018-05-25T00:02:00.210Z,5.5
2018-05-25T00:02:12.630Z,5.5
2018-05-25T00:02:25.038Z,5.5
2018-05-25T00:02:37.440Z,5.5
2018-05-25T00:02:49.837Z,5.5
2018-05-25T00:03:02.236Z,5.5
2018-05-25T00:03:14.659Z,5.5
2018-05-25T00:03:27.072Z,5.5
2018-05-25T00:03:39.480Z,5.5
2018-05-25T00:03:51.895Z,5.5
2018-05-25T00:04:04.316Z,5.5
2018-05-25T00:04:16.716Z,5.5
2018-05-25T00:04:29.128Z,5.5
2018-05-25T00:04:41.563Z,5.5
2018-05-25T00:04:53.962Z,5.5
2018-05-25T00:05:06.564Z,5.5
2018-05-25T00:05:18.966Z,5.5
2018-05-25T00:05:31.420Z,5.5
2018-05-25T00:05:43.844Z,5.5
2018-05-25T00:05:56.294Z,5.5
2018-05-25T00:06:08.712Z,5.5
2018-05-25T00:06:21.140Z,5.5
2018-05-25T00:06:33.534Z,5.5
2018-05-25T00:06:45.940Z,5.5
2018-05-25T00:06:58.347Z,5.5
2018-05-25T00:07:10.792Z,5.5
2018-05-25T00:07:23.208Z,5.5
2018-05-25T00:07:35.641Z,5.5
2018-05-25T00:07:48.054Z,5.5
2018-05-25T00:08:00.473Z,5.5
2018-05-25T00:08:12.878Z,5.5
2018-05-25T00:08:25.301Z,5.5
2018-05-25T00:08:37.705Z,5.5
2018-05-25T00:08:50.109Z,5.5
2018-05-25T00:09:02.518Z,5.5
2018-05-25T00:09:14.916Z,5.5
2018-05-25T00:09:27.318Z,5.5
2018-05-25T00:09:39.757Z,5.5
2018-05-25T00:09:52.175Z,5.5
2018-05-25T00:10:04.599Z,5.5
2018-05-25T00:10:17.037Z,5.5
2018-05-25T00:10:29.447Z,5.5
2018-05-25T00:10:41.864Z,5.5
2018-05-25T00:10:54.290Z,5.5
2018-05-25T00:11:06.703Z,5.5
2018-05-25T00:11:19.111Z,3.18
2018-05-25T00:11:31.509Z,3.18
2018-05-25T00:11:43.919Z,3.18
2018-05-25T00:11:56.338Z,3.18
2018-05-25T00:12:08.743Z,3.18
2018-05-25T00:12:21.157Z,3.18
2018-05-25T00:12:33.559Z,3.18
2018-05-25T00:12:45.975Z,3.18
2018-05-25T00:12:58.377Z,3.18
2018-05-25T00:13:10.778Z,3.18
2018-05-25T00:13:23.167Z,3.18
2018-05-25T00:13:35.594Z,3.18
2018-05-25T00:13:48.007Z,3.18
2018-05-25T00:14:00.413Z,3.18
2018-05-25T00:14:12.853Z,3.18
2018-05-25T00:14:25.269Z,3.18
2018-05-25T00:14:37.680Z,3.18
2018-05-25T00:14:50.081Z,3.18
2018-05-25T00:15:02.493Z,3.18
2018-05-25T00:15:14.989Z,3.18
2018-05-25T00:15:27.404Z,3.18
2018-05-25T00:15:39.811Z,3.18
2018-05-25T00:15:52.218Z,3.18
2018-05-25T00:16:04.617Z,3.18
2018-05-25T00:16:17.017Z,3.18
2018-05-25T00:16:29.424Z,3.18
2018-05-25T00:16:41.820Z,3.18
2018-05-25T00:16:54.225Z,3.18
2018-05-25T00:17:06.651Z,3.18
2018-05-25T00:17:19.057Z,3.18
2018-05-25T00:17:31.470Z,3.18
2018-05-25T00:17:43.881Z,3.18
2018-05-25T00:17:56.975Z,3.18
2018-05-25T00:18:09.398Z,3.18
2018-05-25T00:18:22.040Z,3.18
2018-05-25T00:18:34.463Z,3.18
2018-05-25T00:18:46.915Z,3.18
2018-05-25T00:18:59.333Z,3.18
2018-05-25T00:19:11.744Z,3.18
2018-05-25T00:19:24.157Z,3.18
2018-05-25T00:19:36.563Z,3.18
2018-05-25T00:19:48.960Z,3.18
2018-05-25T00:20:01.362Z,3.18
2018-05-25T00:20:13.778Z,3.18
2018-05-25T00:20:26.193Z,3.18
2018-05-25T00:20:38.606Z,3.18
2018-05-25T00:20:51.005Z,3.18
2018-05-25T00:21:03.427Z,3.18
2018-05-25T00:21:15.821Z,3.18
2018-05-25T00:21:28.242Z,5.44
2018-05-25T00:21:40.637Z,5.44
2018-05-25T00:21:53.034Z,5.44
2018-05-25T00:22:05.442Z,5.44
2018-05-25T00:22:17.859Z,5.44
2018-05-25T00:22:30.265Z,5.44
2018-05-25T00:22:42.680Z,5.44
2018-05-25T00:22:55.252Z,5.44
2018-05-25T00:23:07.710Z,5.44
2018-05-25T00:23:20.116Z,5.44
2018-05-25T00:23:32.522Z,5.44
2018-05-25T00:23:44.927Z,5.44
2018-05-25T00:23:57.322Z,5.44
2018-05-25T00:24:09.736Z,5.44
2018-05-25T00:24:22.160Z,5.44
2018-05-25T00:24:34.564Z,5.44
2018-05-25T00:24:47.276Z,5.44
2018-05-25T00:25:00.072Z,5.44
2018-05-25T00:25:12.495Z,5.44
2018-05-25T00:25:24.906Z,5.44
2018-05-25T00:25:37.325Z,5.44
2018-05-25T00:25:49.741Z,5.44
2018-05-25T00:26:02.158Z,5.44
2018-05-25T00:26:14.563Z,5.44
2018-05-25T00:26:26.976Z,5.44
2018-05-25T00:26:39.389Z,5.44
2018-05-25T00:26:51.798Z,5.44
2018-05-25T00:27:04.201Z,5.44
2018-05-25T00:27:16.613Z,5.44
2018-05-25T00:27:29.047Z,5.44
2018-05-25T00:27:41.456Z,5.44
2018-05-25T00:27:54.024Z,5.44
2018-05-25T00:28:06.421Z,5.44
2018-05-25T00:28:18.826Z,5.44
2018-05-25T00:28:31.229Z,5.44
2018-05-25T00:28:43.639Z,5.44
2018-05-25T00:28:56.046Z,5.44
2018-05-25T00:29:08.468Z,5.44
2018-05-25T00:29:20.886Z,5.44
2018-05-25T00:29:33.318Z,5.44
2018-05-25T00:29:45.726Z,5.44
2018-05-25T00:29:58.128Z,5.44
2018-05-25T00:30:10.539Z,5.44
2018-05-25T00:30:22.951Z,5.44
2018-05-25T00:30:35.352Z,5.44
2018-05-25T00:30:47.780Z,5.44
2018-05-25T00:31:00.208Z,5.44
2018-05-25T00:31:12.628Z,5.44
2018-05-25T00:31:25.027Z,4.75
2018-05-25T00:31:37.471Z,4.75
2018-05-25T00:31:49.877Z,4.75
2018-05-25T00:32:02.313Z,4.75
2018-05-25T00:32:14.715Z,4.75
2018-05-25T00:32:27.124Z,4.75
2018-05-25T00:32:39.535Z,4.75
2018-05-25T00:32:52.004Z,4.75
2018-05-25T00:33:04.434Z,4.75
2018-05-25T00:33:16.894Z,4.75
2018-05-25T00:33:29.312Z,4.75
2018-05-25T00:33:41.741Z,4.75
2018-05-25T00:33:54.142Z,4.75
2018-05-25T00:34:06.551Z,4.75
2018-05-25T00:34:18.961Z,4.75
2018-05-25T00:34:31.365Z,4.75
2018-05-25T00:34:43.780Z,4.75
2018-05-25T00:34:56.185Z,4.75
2018-05-25T00:35:08.600Z,4.75
2018-05-25T00:35:21.019Z,4.75
2018-05-25T00:35:33.438Z,4.75
2018-05-25T00:35:45.840Z,4.75
2018-05-25T00:35:58.292Z,4.75
2018-05-25T00:36:10.709Z,4.75
2018-05-25T00:36:23.107Z,4.75
2018-05-25T00:36:35.540Z,4.75
2018-05-25T00:36:47.927Z,4.75
2018-05-25T00:37:00.338Z,4.75
2018-05-25T00:37:12.743Z,4.75
2018-05-25T00:37:25.169Z,4.75
2018-05-25T00:37:37.557Z,4.75
2018-05-25T00:37:50.036Z,4.75
2018-05-25T00:38:02.451Z,4.75
2018-05-25T00:38:15.004Z,4.75
2018-05-25T00:38:27.408Z,4.75
2018-05-25T00:38:39.797Z,4.75
2018-05-25T00:38:52.199Z,4.75
2018-05-25T00:39:04.597Z,4.75
2018-05-25T00:39:17.007Z,4.75
2018-05-25T00:39:29.395Z,4.75
2018-05-25T00:39:41.801Z,4.75
2018-05-25T00:39:54.193Z,4.75
2018-05-25T00:40:06.596Z,4.75
2018-05-25T00:40:19.003Z,4.75
2018-05-25T00:40:31.421Z,4.75
2018-05-25T00:40:43.829Z,4.75
2018-05-25T00:40:56.423Z,4.75
2018-05-25T00:41:08.870Z,4.75
2018-05-25T00:41:21.307Z,4.3
2018-05-25T00:41:33.759Z,4.3
2018-05-25T00:41:46.145Z,4.3
2018-05-25T00:41:58.545Z,4.3
2018-05-25T00:42:10.962Z,4.3
2018-05-25T00:42:23.365Z,4.3
2018-05-25T00:42:35.770Z,4.3
2018-05-25T00:42:48.194Z,4.3
2018-05-25T00:43:00.597Z,4.3
2018-05-25T00:43:13.019Z,4.3
2018-05-25T00:43:25.418Z,4.3
2018-05-25T00:43:37.827Z,4.3
2018-05-25T00:43:50.226Z,4.3
2018-05-25T00:44:02.638Z,4.3
2018-05-25T00:44:15.028Z,4.3
2018-05-25T00:44:27.430Z,4.3
2018-05-25T00:44:39.824Z,4.3
2018-05-25T00:44:52.226Z,4.3
2018-05-25T00:45:04.623Z,4.3
2018-05-25T00:45:17.038Z,4.3
2018-05-25T00:45:29.441Z,4.3
2018-05-25T00:45:41.843Z,4.3
2018-05-25T00:45:54.266Z,4.3
2018-05-25T00:46:06.712Z,4.3
2018-05-25T00:46:19.147Z,4.3
2018-05-25T00:46:31.550Z,4.3
2018-05-25T00:46:43.958Z,4.3
2018-05-25T00:46:56.348Z,4.3
2018-05-25T00:47:08.798Z,4.3
2018-05-25T00:47:21.211Z,4.3
2018-05-25T00:47:33.627Z,4.3
2018-05-25T00:47:46.038Z,4.3
2018-05-25T00:47:58.432Z,4.3
2018-05-25T00:48:10.838Z,4.3
2018-05-25T00:48:23.389Z,4.3
2018-05-25T00:48:35.844Z,4.3
2018-05-25T00:48:48.309Z,4.3
2018-05-25T00:49:00.717Z,4.3
2018-05-25T00:49:13.134Z,4.3
2018-05-25T00:49:25.526Z,4.3
2018-05-25T00:49:38.270Z,4.3
2018-05-25T00:49:50.732Z,4.3
2018-05-25T00:50:03.127Z,4.3
2018-05-25T00:50:15.537Z,4.3
2018-05-25T00:50:28.483Z,4.3
2018-05-25T00:50:40.941Z,4.3
2018-05-25T00:50:53.345Z,4.3
2018-05-25T00:51:05.745Z,4.3
2018-05-25T00:51:18.152Z,4.3
2018-05-25T00:51:30.566Z,4.18
2018-05-25T00:51:42.962Z,4.18
2018-05-25T00:51:55.418Z,4.18
2018-05-25T00:52:07.830Z,4.18
2018-05-25T00:52:20.365Z,4.18
2018-05-25T00:52:32.763Z,4.18
2018-05-25T00:52:45.152Z,4.18
2018-05-25T00:52:57.540Z,4.18
2018-05-25T00:53:09.936Z,4.18
2018-05-25T00:53:22.372Z,4.18
2018-05-25T00:53:34.782Z,4.18
2018-05-25T00:53:47.180Z,4.18
2018-05-25T00:53:59.591Z,4.18
2018-05-25T00:54:11.991Z,4.18
2018-05-25T00:54:24.408Z,4.18
2018-05-25T00:54:36.805Z,4.18
2018-05-25T00:54:49.359Z,4.18
2018-05-25T00:55:01.803Z,4.18
2018-05-25T00:55:14.348Z,4.18
2018-05-25T00:55:26.752Z,4.18
2018-05-25T00:55:39.175Z,4.18
2018-05-25T00:55:51.635Z,4.18
2018-05-25T00:56:04.032Z,4.18
2018-05-25T00:56:16.418Z,4.18
2018-05-25T00:56:28.816Z,4.18
2018-05-25T00:56:41.275Z,4.18
2018-05-25T00:56:53.683Z,4.18
2018-05-25T00:57:06.128Z,4.18
2018-05-25T00:57:18.521Z,4.18
2018-05-25T00:57:30.919Z,4.18
2018-05-25T00:57:43.326Z,4.18
2018-05-25T00:57:55.755Z,4.18
2018-05-25T00:58:08.172Z,4.18
2018-05-25T00:58:20.585Z,4.18
2018-05-25T00:58:32.982Z,4.18
2018-05-25T00:58:45.406Z,4.18
2018-05-25T00:58:57.812Z,4.18
2018-05-25T00:59:10.210Z,4.18
2018-05-25T00:59:22.621Z,4.18
2018-05-25T00:59:35.069Z,4.18
2018-05-25T00:59:47.517Z,4.18
2018-05-25T00:59:59.914Z,4.18
2018-05-25T01:00:12.328Z,4.18
2018-05-25T01:00:24.783Z,4.18
2018-05-25T01:00:37.369Z,4.18
2018-05-25T01:00:49.799Z,4.18
2018-05-25T01:01:02.231Z,4.18
2018-05-25T01:01:14.671Z,4.18
2018-05-25T01:01:27.089Z,4.31
2018-05-25T01:01:39.512Z,4.31
2018-05-25T01:01:52.098Z,4.31
2018-05-25T01:02:04.518Z,4.31
2018-05-25T01:02:16.904Z,4.31
2018-05-25T01:02:29.303Z,4.31
2018-05-25T01:02:41.711Z,4.31
2018-05-25T01:02:54.110Z,4.31
2018-05-25T01:03:06.515Z,4.31
2018-05-25T01:03:18.948Z,4.31
2018-05-25T01:03:31.355Z,4.31
2018-05-25T01:03:43.771Z,4.31
2018-05-25T01:03:56.173Z,4.31
2018-05-25T01:04:08.560Z,4.31
2018-05-25T01:04:20.967Z,4.31
2018-05-25T01:04:33.432Z,4.31
2018-05-25T01:04:45.884Z,4.31
2018-05-25T01:04:58.305Z,4.31
2018-05-25T01:05:10.882Z,4.31
2018-05-25T01:05:23.303Z,4.31
2018-05-25T01:05:35.711Z,4.31
2018-05-25T01:05:48.111Z,4.31
2018-05-25T01:06:00.521Z,4.31
2018-05-25T01:06:12.973Z,4.31
2018-05-25T01:06:25.381Z,4.31
2018-05-25T01:06:37.789Z,4.31
2018-05-25T01:06:50.199Z,4.31
2018-05-25T01:07:02.596Z,4.31
2018-05-25T01:07:14.993Z,4.31
2018-05-25T01:07:27.392Z,4.31
2018-05-25T01:07:39.803Z,4.31
2018-05-25T01:07:52.220Z,4.31
2018-05-25T01:08:04.629Z,4.31
2018-05-25T01:08:17.032Z,4.31
2018-05-25T01:08:29.444Z,4.31
2018-05-25T01:08:41.848Z,4.31
2018-05-25T01:08:54.253Z,4.31
2018-05-25T01:09:06.684Z,4.31
2018-05-25T01:09:19.093Z,4.31
2018-05-25T01:09:31.504Z,4.31
2018-05-25T01:09:43.906Z,4.31
2018-05-25T01:09:56.326Z,4.31
2018-05-25T01:10:08.747Z,4.31
2018-05-25T01:10:21.151Z,4.31
2018-05-25T01:10:33.567Z,4.31
2018-05-25T01:10:45.987Z,4.31
2018-05-25T01:10:58.383Z,4.31
2018-05-25T01:11:10.791Z,4.31
2018-05-25T01:11:23.203Z,3.94
2018-05-25T01:11:35.595Z,3.94
2018-05-25T01:11:48.026Z,3.94
2018-05-25T01:12:00.422Z,3.94
2018-05-25T01:12:12.993Z,3.94
2018-05-25T01:12:25.397Z,3.94
2018-05-25T01:12:37.866Z,3.94
2018-05-25T01:12:50.261Z,3.94
2018-05-25T01:13:02.669Z,3.94
2018-05-25T01:13:15.071Z,3.94
2018-05-25T01:13:27.475Z,3.94
2018-05-25T01:13:39.867Z,3.94
2018-05-25T01:13:52.263Z,3.94
2018-05-25T01:14:04.664Z,3.94
2018-05-25T01:14:17.077Z,3.94
2018-05-25T01:14:29.493Z,3.94
2018-05-25T01:14:41.880Z,3.94
2018-05-25T01:14:54.288Z,3.94
2018-05-25T01:15:06.955Z,3.94
2018-05-25T01:15:19.357Z,3.94
2018-05-25T01:15:31.756Z,3.94
2018-05-25T01:15:44.161Z,3.94
2018-05-25T01:15:56.565Z,3.94
2018-05-25T01:16:08.992Z,3.94
2018-05-25T01:16:21.413Z,3.94
2018-05-25T01:16:33.805Z,3.94
2018-05-25T01:16:46.213Z,3.94
2018-05-25T01:16:58.616Z,3.94
2018-05-25T01:17:11.074Z,3.94
2018-05-25T01:17:23.474Z,3.94
2018-05-25T01:17:35.876Z,3.94
2018-05-25T01:17:48.291Z,3.94
2018-05-25T01:18:01.020Z,3.94
2018-05-25T01:18:13.606Z,3.94
2018-05-25T01:18:26.137Z,3.94
2018-05-25T01:18:38.535Z,3.94
2018-05-25T01:18:50.937Z,3.94
2018-05-25T01:19:03.329Z,3.94
2018-05-25T01:19:15.749Z,3.94
2018-05-25T01:19:28.145Z,3.94
2018-05-25T01:19:40.544Z,3.94
2018-05-25T01:19:52.952Z,3.94
2018-05-25T01:20:05.364Z,3.94
2018-05-25T01:20:17.773Z,3.94
2018-05-25T01:20:30.171Z,3.94
2018-05-25T01:20:42.584Z,3.94
2018-05-25T01:20:54.977Z,3.94
2018-05-25T01:21:07.374Z,3.94
2018-05-25T01:21:19.787Z,3.94
2018-05-25T01:21:32.181Z,4.6
2018-05-25T01:21:44.607Z,4.6
2018-05-25T01:21:57.008Z,4.6
2018-05-25T01:22:09.399Z,4.6
2018-05-25T01:22:21.793Z,4.6
2018-05-25T01:22:34.217Z,4.6
2018-05-25T01:22:46.630Z,4.6
2018-05-25T01:22:59.107Z,4.6
2018-05-25T01:23:11.507Z,4.6
2018-05-25T01:23:23.912Z,4.6
2018-05-25T01:23:36.341Z,4.6
2018-05-25T01:23:48.740Z,4.6
2018-05-25T01:24:01.147Z,4.6
2018-05-25T01:24:13.556Z,4.6
2018-05-25T01:24:25.960Z,4.6
2018-05-25T01:24:38.363Z,4.6
2018-05-25T01:24:50.768Z,4.6
2018-05-25T01:25:03.161Z,4.6
2018-05-25T01:25:15.583Z,4.6
2018-05-25T01:25:27.984Z,4.6
2018-05-25T01:25:40.387Z,4.6
2018-05-25T01:25:52.791Z,4.6
2018-05-25T01:26:05.193Z,4.6
2018-05-25T01:26:17.592Z,4.6
2018-05-25T01:26:29.995Z,4.6
2018-05-25T01:26:42.438Z,4.6
2018-05-25T01:26:54.850Z,4.6
2018-05-25T01:27:07.259Z,4.6
2018-05-25T01:27:19.684Z,4.6
2018-05-25T01:27:32.099Z,4.6
2018-05-25T01:27:44.773Z,4.6
2018-05-25T01:27:57.175Z,4.6
2018-05-25T01:28:09.574Z,4.6
2018-05-25T01:28:21.974Z,4.6
2018-05-25T01:28:34.394Z,4.6
2018-05-25T01:28:46.786Z,4.6
2018-05-25T01:28:59.195Z,4.6
2018-05-25T01:29:11.596Z,4.6
2018-05-25T01:29:24.015Z,4.6
2018-05-25T01:29:36.418Z,4.6
2018-05-25T01:29:48.816Z,4.6
2018-05-25T01:30:01.219Z,4.6
2018-05-25T01:30:13.616Z,4.6
2018-05-25T01:30:26.031Z,4.6
2018-05-25T01:30:38.429Z,4.6
2018-05-25T01:30:50.832Z,4.6
2018-05-25T01:31:03.242Z,4.6
2018-05-25T01:31:15.640Z,4.6
2018-05-25T01:31:28.039Z,5.33
2018-05-25T01:31:40.462Z,5.33
2018-05-25T01:31:52.858Z,5.33
2018-05-25T01:32:05.266Z,5.33
2018-05-25T01:32:17.672Z,5.33
2018-05-25T01:32:30.089Z,5.33
2018-05-25T01:32:42.566Z,5.33
2018-05-25T01:32:54.975Z,5.33
2018-05-25T01:33:07.392Z,5.33
2018-05-25T01:33:19.815Z,5.33
2018-05-25T01:33:32.210Z,5.33
2018-05-25T01:33:44.622Z,5.33
2018-05-25T01:33:57.021Z,5.33
2018-05-25T01:34:09.453Z,5.33
2018-05-25T01:34:21.866Z,5.33
2018-05-25T01:34:34.265Z,5.33
2018-05-25T01:34:46.675Z,5.33
2018-05-25T01:34:59.118Z,5.33
2018-05-25T01:35:11.516Z,5.33
2018-05-25T01:35:23.927Z,5.33
2018-05-25T01:35:36.328Z,5.33
2018-05-25T01:35:48.733Z,5.33
2018-05-25T01:36:01.132Z,5.33
2018-05-25T01:36:13.528Z,5.33
2018-05-25T01:36:25.923Z,5.33
2018-05-25T01:36:38.331Z,5.33
2018-05-25T01:36:50.733Z,5.33
2018-05-25T01:37:03.144Z,5.33
2018-05-25T01:37:15.536Z,5.33
2018-05-25T01:37:27.941Z,5.33
2018-05-25T01:37:40.350Z,5.33
2018-05-25T01:37:52.787Z,5.33
2018-05-25T01:38:05.198Z,5.33
2018-05-25T01:38:17.808Z,5.33
2018-05-25T01:38:30.204Z,5.33
2018-05-25T01:38:42.744Z,5.33
2018-05-25T01:38:55.130Z,5.33
2018-05-25T01:39:07.541Z,5.33
2018-05-25T01:39:19.940Z,5.33
2018-05-25T01:39:32.361Z,5.33
2018-05-25T01:39:44.756Z,5.33
2018-05-25T01:39:57.195Z,5.33
2018-05-25T01:40:09.594Z,5.33
2018-05-25T01:40:21.986Z,5.33
2018-05-25T01:40:34.380Z,5.33
2018-05-25T01:40:46.785Z,5.33
2018-05-25T01:40:59.276Z,5.33
2018-05-25T01:41:11.685Z,5.33
2018-05-25T01:41:24.084Z,5.69
2018-05-25T01:41:36.492Z,5.69
2018-05-25T01:41:48.938Z,5.69
2018-05-25T01:42:01.340Z,5.69
2018-05-25T01:42:13.749Z,5.69
2018-05-25T01:42:26.159Z,5.69
2018-05-25T01:42:38.556Z,5.69
2018-05-25T01:42:50.968Z,5.69
2018-05-25T01:43:03.394Z,5.69
2018-05-25T01:43:15.821Z,5.69
2018-05-25T01:43:28.209Z,5.69
2018-05-25T01:43:40.620Z,5.69
2018-05-25T01:43:53.023Z,5.69
2018-05-25T01:44:05.437Z,5.69
2018-05-25T01:44:17.837Z,5.69
2018-05-25T01:44:30.241Z,5.69
2018-05-25T01:44:42.650Z,5.69
2018-05-25T01:44:55.089Z,5.69
2018-05-25T01:45:07.515Z,5.69
2018-05-25T01:45:19.929Z,5.69
2018-05-25T01:45:32.356Z,5.69
2018-05-25T01:45:44.792Z,5.69
2018-05-25T01:45:57.214Z,5.69
2018-05-25T01:46:09.623Z,5.69
2018-05-25T01:46:22.028Z,5.69
2018-05-25T01:46:34.520Z,5.69
2018-05-25T01:46:46.950Z,5.69
2018-05-25T01:46:59.372Z,5.69
2018-05-25T01:47:11.777Z,5.69
2018-05-25T01:47:24.189Z,5.69
2018-05-25T01:47:36.596Z,5.69
2018-05-25T01:47:49.000Z,5.69
2018-05-25T01:48:01.411Z,5.69
2018-05-25T01:48:13.849Z,5.69
2018-05-25T01:48:26.420Z,5.69
2018-05-25T01:48:38.820Z,5.69
2018-05-25T01:48:51.235Z,5.69
2018-05-25T01:49:03.626Z,5.69
2018-05-25T01:49:16.082Z,5.69
2018-05-25T01:49:28.543Z,5.69
2018-05-25T01:49:40.941Z,5.69
2018-05-25T01:49:53.345Z,5.69
2018-05-25T01:50:05.747Z,5.69
2018-05-25T01:50:18.215Z,5.69
2018-05-25T01:50:30.633Z,5.69
2018-05-25T01:50:43.038Z,5.69
2018-05-25T01:50:55.450Z,5.69
2018-05-25T01:51:07.865Z,5.69
2018-05-25T01:51:20.317Z,5.69
2018-05-25T01:51:32.722Z,5.08
2018-05-25T01:51:45.174Z,5.08
2018-05-25T01:51:57.586Z,5.08
2018-05-25T01:52:09.988Z,5.08
2018-05-25T01:52:22.549Z,5.08
2018-05-25T01:52:34.952Z,5.08
2018-05-25T01:52:47.365Z,5.08
2018-05-25T01:52:59.765Z,5.08
2018-05-25T01:53:12.171Z,5.08
2018-05-25T01:53:24.567Z,5.08
2018-05-25T01:53:36.982Z,5.08
2018-05-25T01:53:49.387Z,5.08
2018-05-25T01:54:01.797Z,5.08
2018-05-25T01:54:14.258Z,5.08
2018-05-25T01:54:26.672Z,5.08
2018-05-25T01:54:39.076Z,5.08
2018-05-25T01:54:51.485Z,5.08
2018-05-25T01:55:03.903Z,5.08
2018-05-25T01:55:16.502Z,5.08
2018-05-25T01:55:29.020Z,5.08
2018-05-25T01:55:41.422Z,5.08
2018-05-25T01:55:53.833Z,5.08
2018-05-25T01:56:06.231Z,5.08
2018-05-25T01:56:18.623Z,5.08
2018-05-25T01:56:31.017Z,5.08
2018-05-25T01:56:43.420Z,5.08
2018-05-25T01:56:55.819Z,5.08
2018-05-25T01:57:08.224Z,5.08
2018-05-25T01:57:20.639Z,5.08
2018-05-25T01:57:33.068Z,5.08
2018-05-25T01:57:45.468Z,5.08
2018-05-25T01:57:57.877Z,5.08
2018-05-25T01:58:10.297Z,5.08
2018-05-25T01:58:22.683Z,5.08
2018-05-25T01:58:35.092Z,5.08
2018-05-25T01:58:47.550Z,5.08
2018-05-25T01:58:59.957Z,5.08
2018-05-25T01:59:12.385Z,5.08
2018-05-25T01:59:24.791Z,5.08
2018-05-25T01:59:37.235Z,5.08
2018-05-25T01:59:49.640Z,5.08
2018-05-25T02:00:02.041Z,5.08
2018-05-25T02:00:14.469Z,5.08
2018-05-25T02:00:26.950Z,5.08
2018-05-25T02:00:39.416Z,5.08
2018-05-25T02:00:51.840Z,5.08
2018-05-25T02:01:04.272Z,5.08
2018-05-25T02:01:16.804Z,5.08
2018-05-25T02:01:29.219Z,4.01
2018-05-25T02:01:41.606Z,4.01
2018-05-25T02:01:54.160Z,4.01
2018-05-25T02:02:06.559Z,4.01
2018-05-25T02:02:18.956Z,4.01
2018-05-25T02:02:31.353Z,4.01
2018-05-25T02:02:43.774Z,4.01
2018-05-25T02:02:56.201Z,4.01
2018-05-25T02:03:08.595Z,4.01
2018-05-25T02:03:20.999Z,4.01
2018-05-25T02:03:33.406Z,4.01
2018-05-25T02:03:45.825Z,4.01
2018-05-25T02:03:58.209Z,4.01
2018-05-25T02:04:10.644Z,4.01
2018-05-25T02:04:23.035Z,4.01
2018-05-25T02:04:35.439Z,4.01
2018-05-25T02:04:47.838Z,4.01
2018-05-25T02:05:00.244Z,4.01
2018-05-25T02:05:12.814Z,4.01
2018-05-25T02:05:25.276Z,4.01
2018-05-25T02:05:37.670Z,4.01
2018-05-25T02:05:50.051Z,4.01
2018-05-25T02:06:02.447Z,4.01
2018-05-25T02:06:14.855Z,4.01
2018-05-25T02:06:27.264Z,4.01
2018-05-25T02:06:39.656Z,4.01
2018-05-25T02:06:52.060Z,4.01
2018-05-25T02:07:04.465Z,4.01
2018-05-25T02:07:16.863Z,4.01
2018-05-25T02:07:29.302Z,4.01
2018-05-25T02:07:41.715Z,4.01
2018-05-25T02:07:54.112Z,4.01
2018-05-25T02:08:06.519Z,4.01
2018-05-25T02:08:18.930Z,4.01
2018-05-25T02:08:31.385Z,4.01
2018-05-25T02:08:43.799Z,4.01
2018-05-25T02:08:56.256Z,4.01
2018-05-25T02:09:08.654Z,4.01
2018-05-25T02:09:21.087Z,4.01
2018-05-25T02:09:33.563Z,4.01
2018-05-25T02:09:45.974Z,4.01
2018-05-25T02:09:58.447Z,4.01
2018-05-25T02:10:10.900Z,4.01
2018-05-25T02:10:23.372Z,4.01
2018-05-25T02:10:35.777Z,4.01
2018-05-25T02:10:48.170Z,4.01
2018-05-25T02:11:00.599Z,4.01
2018-05-25T02:11:13.248Z,4.01
2018-05-25T02:11:25.895Z,4.12
2018-05-25T02:11:38.299Z,4.12
2018-05-25T02:11:50.692Z,4.12
2018-05-25T02:12:03.154Z,4.12
2018-05-25T02:12:15.565Z,4.12
2018-05-25T02:12:27.974Z,4.12
2018-05-25T02:12:40.388Z,4.12
2018-05-25T02:12:52.807Z,4.12
2018-05-25T02:13:05.224Z,4.12
2018-05-25T02:13:17.632Z,4.12
2018-05-25T02:13:30.043Z,4.12
2018-05-25T02:13:42.442Z,4.12
2018-05-25T02:13:54.844Z,4.12
2018-05-25T02:14:07.244Z,4.12
2018-05-25T02:14:19.667Z,4.12
2018-05-25T02:14:32.070Z,4.12
2018-05-25T02:14:44.479Z,4.12
2018-05-25T02:14:56.882Z,4.12
2018-05-25T02:15:09.360Z,4.12
2018-05-25T02:15:21.763Z,4.12
2018-05-25T02:15:34.176Z,4.12
2018-05-25T02:15:46.599Z,4.12
2018-05-25T02:15:59.041Z,4.12
2018-05-25T02:16:11.461Z,4.12
2018-05-25T02:16:23.870Z,4.12
2018-05-25T02:16:36.271Z,4.12
2018-05-25T02:16:48.664Z,4.12
2018-05-25T02:17:01.055Z,4.12
2018-05-25T02:17:13.489Z,4.12
2018-05-25T02:17:25.907Z,4.12
2018-05-25T02:17:38.309Z,4.12
2018-05-25T02:17:50.719Z,4.12
2018-05-25T02:18:03.487Z,4.12
2018-05-25T02:18:16.109Z,4.12
2018-05-25T02:18:28.518Z,4.12
2018-05-25T02:18:41.010Z,4.12
2018-05-25T02:18:53.408Z,4.12
2018-05-25T02:19:05.833Z,4.12
2018-05-25T02:19:18.242Z,4.12
2018-05-25T02:19:30.639Z,4.12
2018-05-25T02:19:43.047Z,4.12
2018-05-25T02:19:55.460Z,4.12
2018-05-25T02:20:07.851Z,4.12
2018-05-25T02:20:20.251Z,4.12
2018-05-25T02:20:32.652Z,4.12
2018-05-25T02:20:45.056Z,4.12
2018-05-25T02:20:57.454Z,4.12
2018-05-25T02:21:09.858Z,4.12
2018-05-25T02:21:22.269Z,4.12
2018-05-25T02:21:34.668Z,4.6
2018-05-25T02:21:47.069Z,4.6
2018-05-25T02:21:59.487Z,4.6
2018-05-25T02:22:11.902Z,4.6
2018-05-25T02:22:24.336Z,4.6
2018-05-25T02:22:36.781Z,4.6
2018-05-25T02:22:49.187Z,4.6
2018-05-25T02:23:01.602Z,4.6
2018-05-25T02:23:14.025Z,4.6
2018-05-25T02:23:26.480Z,4.6
2018-05-25T02:23:38.881Z,4.6
2018-05-25T02:23:51.283Z,4.6
2018-05-25T02:24:03.697Z,4.6
2018-05-25T02:24:16.105Z,4.6
2018-05-25T02:24:28.578Z,4.6
2018-05-25T02:24:40.980Z,4.6
2018-05-25T02:24:53.386Z,4.6
2018-05-25T02:25:05.807Z,4.6
2018-05-25T02:25:18.214Z,4.6
2018-05-25T02:25:30.621Z,4.6
2018-05-25T02:25:43.026Z,4.6
2018-05-25T02:25:55.439Z,4.6
2018-05-25T02:26:07.899Z,4.6
2018-05-25T02:26:20.311Z,4.6
2018-05-25T02:26:32.713Z,4.6
2018-05-25T02:26:45.124Z,4.6
2018-05-25T02:26:57.536Z,4.6
2018-05-25T02:27:09.949Z,4.6
2018-05-25T02:27:22.364Z,4.6
2018-05-25T02:27:34.756Z,4.6
2018-05-25T02:27:47.601Z,4.6
2018-05-25T02:28:00.016Z,4.6
2018-05-25T02:28:12.420Z,4.6
2018-05-25T02:28:24.809Z,4.6
2018-05-25T02:28:37.214Z,4.6
2018-05-25T02:28:49.649Z,4.6
2018-05-25T02:29:02.100Z,4.6
2018-05-25T02:29:14.507Z,4.6
2018-05-25T02:29:26.952Z,4.6
2018-05-25T02:29:39.371Z,4.6
2018-05-25T02:29:51.782Z,4.6
2018-05-25T02:30:04.205Z,4.6
2018-05-25T02:30:16.605Z,4.6
2018-05-25T02:30:29.023Z,4.6
2018-05-25T02:30:41.507Z,4.6
2018-05-25T02:30:53.904Z,4.6
2018-05-25T02:31:06.324Z,4.6
2018-05-25T02:31:18.747Z,4.6
2018-05-25T02:31:31.178Z,4.12
2018-05-25T02:31:43.590Z,4.12
2018-05-25T02:31:56.013Z,4.12
2018-05-25T02:32:08.447Z,4.12
2018-05-25T02:32:20.883Z,4.12
2018-05-25T02:32:33.337Z,4.12
2018-05-25T02:32:45.818Z,4.12
2018-05-25T02:32:58.243Z,4.12
2018-05-25T02:33:10.708Z,4.12
2018-05-25T02:33:23.133Z,4.12
2018-05-25T02:33:35.571Z,4.12
2018-05-25T02:33:47.998Z,4.12
2018-05-25T02:34:00.403Z,4.12
2018-05-25T02:34:12.836Z,4.12
2018-05-25T02:34:25.252Z,4.12
2018-05-25T02:34:37.683Z,4.12
2018-05-25T02:34:50.100Z,4.12
2018-05-25T02:35:02.519Z,4.12
2018-05-25T02:35:14.960Z,4.12
2018-05-25T02:35:27.378Z,4.12
2018-05-25T02:35:39.806Z,4.12
2018-05-25T02:35:52.288Z,4.12
2018-05-25T02:36:04.699Z,4.12
2018-05-25T02:36:17.127Z,4.12
2018-05-25T02:36:29.540Z,4.12
2018-05-25T02:36:41.990Z,4.12
2018-05-25T02:36:54.419Z,4.12
2018-05-25T02:37:06.839Z,4.12
2018-05-25T02:37:19.290Z,4.12
2018-05-25T02:37:31.729Z,4.12
2018-05-25T02:37:44.168Z,4.12
2018-05-25T02:37:56.597Z,4.12
2018-05-25T02:38:09.173Z,4.12
2018-05-25T02:38:21.599Z,4.12
2018-05-25T02:38:34.107Z,4.12
2018-05-25T02:38:47.200Z,4.12
2018-05-25T02:38:59.633Z,4.12
2018-05-25T02:39:12.079Z,4.12
2018-05-25T02:39:24.505Z,4.12
2018-05-25T02:39:36.935Z,4.12
2018-05-25T02:39:49.373Z,4.12
2018-05-25T02:40:01.797Z,4.12
2018-05-25T02:40:14.215Z,4.12
2018-05-25T02:40:26.620Z,4.12
2018-05-25T02:40:39.033Z,4.12
2018-05-25T02:40:51.460Z,4.12
2018-05-25T02:41:04.273Z,4.12
2018-05-25T02:41:16.700Z,4.12
2018-05-25T02:41:29.111Z,4.43
2018-05-25T02:41:41.558Z,4.43
2018-05-25T02:41:53.981Z,4.43
2018-05-25T02:42:06.411Z,4.43
2018-05-25T02:42:18.840Z,4.43
2018-05-25T02:42:31.241Z,4.43
2018-05-25T02:42:43.671Z,4.43
2018-05-25T02:42:56.086Z,4.43
2018-05-25T02:43:08.524Z,4.43
2018-05-25T02:43:20.951Z,4.43
2018-05-25T02:43:33.369Z,4.43
2018-05-25T02:43:45.802Z,4.43
2018-05-25T02:43:58.248Z,4.43
2018-05-25T02:44:10.722Z,4.43
2018-05-25T02:44:23.138Z,4.43
2018-05-25T02:44:35.626Z,4.43
2018-05-25T02:44:48.029Z,4.43
2018-05-25T02:45:00.451Z,4.43
2018-05-25T02:45:12.896Z,4.43
2018-05-25T02:45:25.300Z,4.43
2018-05-25T02:45:37.720Z,4.43
2018-05-25T02:45:50.163Z,4.43
2018-05-25T02:46:02.942Z,4.43
2018-05-25T02:46:15.402Z,4.43
2018-05-25T02:46:27.836Z,4.43
2018-05-25T02:46:40.267Z,4.43
2018-05-25T02:46:52.684Z,4.43